Time;durP1;ratioP1;P1;durP2;ratioP2;P2;SDS_P1;SDS_P2;PMS_P1;PMS_P2;Temp;Humidity;BMP_temperature;BMP_pressure;BME280_temperature;BME280_humidity;BME280_pressure;Samples;Min_cycle;Max_cycle;Signal;HPM_P1;HPM_P2
2024/01/06 00:01:57;;;;;;;8.13;3.63;;;;;;;;;;5043387;28;20032;-77
2024/01/06 00:04:22;;;;;;;12.68;4.05;;;;;;;;;;5043409;28;20061;-77
2024/01/06 00:06:48;;;;;;;10.88;3.40;;;;;;;;;;5045129;28;20044;-77
2024/01/06 00:09:13;;;;;;;10.18;4.18;;;;;;;;;;5043947;28;20171;-77
2024/01/06 00:11:38;;;;;;;12.82;4.57;;;;;;;;;;5044988;28;20041;-77
2024/01/06 00:14:04;;;;;;;12.70;4.70;;;;;;;;;;5042793;28;20037;-77
2024/01/06 00:16:29;;;;;;;9.32;4.65;;;;;;;;;;5044182;28;20508;-77
2024/01/06 00:18:55;;;;;;;5.60;2.50;;;;;;;;;;5042678;28;20033;-77
2024/01/06 00:21:20;;;;;;;10.65;3.53;;;;;;;;;;5035293;28;20514;-77
2024/01/06 00:23:45;;;;;;;14.50;4.25;;;;;;;;;;5035047;28;20041;-77
2024/01/06 00:26:11;;;;;;;18.10;5.53;;;;;;;;;;5044730;28;20093;-77
2024/01/06 00:28:37;;;;;;;10.98;4.75;;;;;;;;;;5044740;28;20872;-77
2024/01/06 00:31:04;;;;;;;17.23;5.70;;;;;;;;;;5033644;28;20469;-77
2024/01/06 00:33:29;;;;;;;16.00;6.07;;;;;;;;;;5045135;28;20033;-77
2024/01/06 00:35:55;;;;;;;17.05;6.03;;;;;;;;;;5045021;28;20102;-77
2024/01/06 00:38:21;;;;;;;15.77;5.05;;;;;;;;;;5040588;28;20592;-77
2024/01/06 00:40:46;;;;;;;11.82;4.78;;;;;;;;;;5047979;28;20520;-77
2024/01/06 00:43:11;;;;;;;13.95;4.22;;;;;;;;;;5056274;28;20025;-77
2024/01/06 00:45:37;;;;;;;8.20;4.32;;;;;;;;;;5059612;28;20079;-77
2024/01/06 00:48:03;;;;;;;11.38;4.00;;;;;;;;;;5047284;28;20553;-77
2024/01/06 00:50:29;;;;;;;8.98;4.05;;;;;;;;;;5045668;28;20041;-77
2024/01/06 00:52:54;;;;;;;9.40;3.10;;;;;;;;;;5044877;28;20480;-77
2024/01/06 00:55:20;;;;;;;8.35;3.22;;;;;;;;;;5036574;28;20031;-77
2024/01/06 00:57:45;;;;;;;8.45;2.80;;;;;;;;;;5024711;28;20593;-77
2024/01/06 01:00:11;;;;;;;9.38;3.17;;;;;;;;;;5024369;28;20069;-77
2024/01/06 01:02:37;;;;;;;8.38;3.50;;;;;;;;;;5023631;28;20664;-77
2024/01/06 01:05:02;;;;;;;5.63;2.67;;;;;;;;;;5024315;28;20037;-77
2024/01/06 01:07:28;;;;;;;7.38;3.83;;;;;;;;;;5023265;28;20120;-77
2024/01/06 01:09:53;;;;;;;11.77;3.30;;;;;;;;;;5022351;28;20022;-77
2024/01/06 01:12:19;;;;;;;6.32;2.88;;;;;;;;;;5022667;28;20033;-77
2024/01/06 01:14:44;;;;;;;7.57;3.53;;;;;;;;;;5023450;28;20530;-77
2024/01/06 01:17:09;;;;;;;10.70;3.50;;;;;;;;;;5024504;28;20064;-77
2024/01/06 01:19:34;;;;;;;8.95;3.50;;;;;;;;;;5023368;28;20057;-77
2024/01/06 01:22:00;;;;;;;10.10;4.28;;;;;;;;;;5042383;28;20135;-77
2024/01/06 01:24:26;;;;;;;6.72;3.58;;;;;;;;;;5028654;28;20115;-77
2024/01/06 01:26:51;;;;;;;7.95;3.13;;;;;;;;;;5033518;28;20040;-77
2024/01/06 01:29:17;;;;;;;8.27;3.42;;;;;;;;;;5024701;28;20097;-77
2024/01/06 01:31:42;;;;;;;9.63;3.15;;;;;;;;;;5045934;28;20406;-77
2024/01/06 01:34:08;;;;;;;11.07;3.72;;;;;;;;;;5043953;28;20502;-77
2024/01/06 01:36:33;;;;;;;8.10;3.38;;;;;;;;;;5028043;28;20037;-77
2024/01/06 01:38:58;;;;;;;7.50;3.17;;;;;;;;;;5041945;28;20061;-77
2024/01/06 01:41:24;;;;;;;10.43;3.85;;;;;;;;;;5058963;28;20090;-77
2024/01/06 01:43:57;;;;;;;9.63;4.25;;;;;;;;;;5043758;28;20025;-77
2024/01/06 01:46:25;;;;;;;11.45;3.92;;;;;;;;;;5045017;28;20064;-77
2024/01/06 01:48:50;;;;;;;8.05;3.08;;;;;;;;;;5045851;28;20033;-76
2024/01/06 01:51:17;;;;;;;6.57;3.60;;;;;;;;;;5047761;28;20036;-77
2024/01/06 01:53:43;;;;;;;6.07;2.67;;;;;;;;;;5047469;28;20551;-77
2024/01/06 01:56:08;;;;;;;5.38;2.85;;;;;;;;;;5048436;28;20032;-78
2024/01/06 01:58:34;;;;;;;10.10;3.65;;;;;;;;;;5049298;28;20025;-77
2024/01/06 02:00:59;;;;;;;5.90;3.05;;;;;;;;;;5051806;28;20103;-77
2024/01/06 02:03:25;;;;;;;5.88;2.38;;;;;;;;;;5058790;28;20597;-77
2024/01/06 02:05:50;;;;;;;10.50;3.40;;;;;;;;;;5055839;28;20044;-77
2024/01/06 02:08:16;;;;;;;15.02;3.20;;;;;;;;;;5041720;28;20039;-77
2024/01/06 02:10:41;;;;;;;7.20;2.88;;;;;;;;;;5032773;28;20033;-77
2024/01/06 02:13:11;;;;;;;10.80;3.65;;;;;;;;;;5041942;28;20029;-77
2024/01/06 02:15:37;;;;;;;5.75;2.72;;;;;;;;;;5025793;28;20513;-77
2024/01/06 02:18:03;;;;;;;9.23;3.33;;;;;;;;;;5042800;28;20040;-77
2024/01/06 02:20:30;;;;;;;7.93;3.67;;;;;;;;;;5045665;28;20119;-77
2024/01/06 02:22:56;;;;;;;8.88;3.28;;;;;;;;;;5047085;28;20035;-77
2024/01/06 02:25:22;;;;;;;10.82;4.05;;;;;;;;;;5061927;28;20393;-77
2024/01/06 02:27:47;;;;;;;10.35;4.00;;;;;;;;;;5036473;28;20064;-77
2024/01/06 02:30:13;;;;;;;11.68;4.53;;;;;;;;;;5025802;28;20449;-77
2024/01/06 02:32:38;;;;;;;13.02;3.80;;;;;;;;;;5025479;28;20076;-77
2024/01/06 02:35:04;;;;;;;6.75;3.05;;;;;;;;;;5028614;28;20061;-77
2024/01/06 02:37:29;;;;;;;10.07;3.92;;;;;;;;;;5039904;28;20056;-77
2024/01/06 02:39:55;;;;;;;10.07;4.18;;;;;;;;;;5025104;28;20133;-77
2024/01/06 02:42:20;;;;;;;8.07;3.65;;;;;;;;;;5024748;28;20041;-77
2024/01/06 02:44:46;;;;;;;11.27;4.40;;;;;;;;;;5035776;28;20060;-77
2024/01/06 02:47:11;;;;;;;11.32;4.18;;;;;;;;;;5046570;28;20052;-77
2024/01/06 02:49:36;;;;;;;9.35;3.60;;;;;;;;;;5044090;28;20025;-77
2024/01/06 02:52:02;;;;;;;10.05;4.03;;;;;;;;;;5046105;28;20791;-77
2024/01/06 02:54:27;;;;;;;13.10;3.83;;;;;;;;;;5045156;28;20083;-77
2024/01/06 02:56:52;;;;;;;11.32;3.50;;;;;;;;;;5043949;28;20116;-77
2024/01/06 02:59:18;;;;;;;14.32;5.00;;;;;;;;;;5044362;28;20064;-77
2024/01/06 03:01:43;;;;;;;8.45;2.97;;;;;;;;;;5061340;28;20071;-77
2024/01/06 03:04:08;;;;;;;12.25;4.57;;;;;;;;;;5061340;28;20044;-77
2024/01/06 03:06:34;;;;;;;7.70;3.17;;;;;;;;;;5044229;28;20041;-77
2024/01/06 03:08:59;;;;;;;16.52;5.10;;;;;;;;;;5044815;28;20056;-77
2024/01/06 03:11:25;;;;;;;11.05;3.97;;;;;;;;;;5043251;28;20033;-77
2024/01/06 03:13:50;;;;;;;11.05;4.55;;;;;;;;;;5045725;28;20108;-77
2024/01/06 03:16:15;;;;;;;9.73;3.47;;;;;;;;;;5042262;28;20044;-77
2024/01/06 03:18:41;;;;;;;13.68;3.80;;;;;;;;;;5037915;28;20041;-76
2024/01/06 03:21:19;;;;;;;10.35;3.95;;;;;;;;;;5031875;28;20548;-78
2024/01/06 03:23:45;;;;;;;13.20;4.30;;;;;;;;;;5051370;28;20029;-77
2024/01/06 03:26:10;;;;;;;10.40;3.75;;;;;;;;;;5037664;28;20030;-77
2024/01/06 03:28:36;;;;;;;12.40;4.38;;;;;;;;;;5029081;28;20048;-78
2024/01/06 03:31:01;;;;;;;9.30;4.00;;;;;;;;;;5025175;28;20086;-77
2024/01/06 03:33:26;;;;;;;13.63;4.13;;;;;;;;;;5025729;28;20038;-77
2024/01/06 03:35:52;;;;;;;15.20;5.00;;;;;;;;;;5025985;28;20038;-77
2024/01/06 03:38:17;;;;;;;12.60;4.90;;;;;;;;;;5037418;28;20126;-77
2024/01/06 03:40:42;;;;;;;8.15;3.38;;;;;;;;;;5045587;28;20074;-77
2024/01/06 03:43:08;;;;;;;9.80;3.88;;;;;;;;;;5046159;28;20029;-78
2024/01/06 03:45:33;;;;;;;12.50;4.35;;;;;;;;;;5034506;28;20040;-77
2024/01/06 03:47:58;;;;;;;12.68;4.68;;;;;;;;;;5045518;28;20041;-77
2024/01/06 03:50:24;;;;;;;12.95;4.13;;;;;;;;;;5044040;28;20609;-77
2024/01/06 03:52:49;;;;;;;20.90;5.30;;;;;;;;;;5043859;28;20032;-77
2024/01/06 03:55:16;;;;;;;8.23;3.03;;;;;;;;;;5045413;28;20033;-77
2024/01/06 03:57:41;;;;;;;8.63;3.10;;;;;;;;;;5044027;28;20028;-77
2024/01/06 04:00:07;;;;;;;7.95;3.75;;;;;;;;;;5045515;28;20064;-76
2024/01/06 04:02:33;;;;;;;13.90;4.00;;;;;;;;;;5041415;28;20040;-77
2024/01/06 04:04:58;;;;;;;6.32;2.58;;;;;;;;;;5044659;28;20056;-77
2024/01/06 04:07:23;;;;;;;13.60;4.53;;;;;;;;;;5043469;28;20096;-77
2024/01/06 04:09:49;;;;;;;14.40;4.38;;;;;;;;;;5041452;28;21010;-77
2024/01/06 04:12:14;;;;;;;7.10;2.90;;;;;;;;;;5023718;28;20047;-77
2024/01/06 04:14:39;;;;;;;6.10;2.80;;;;;;;;;;5024173;28;20041;-77
2024/01/06 04:17:05;;;;;;;11.95;3.35;;;;;;;;;;5023234;28;20517;-77
2024/01/06 04:19:30;;;;;;;13.20;4.18;;;;;;;;;;5030447;28;20133;-77
2024/01/06 04:21:55;;;;;;;8.48;3.28;;;;;;;;;;5031692;28;20113;-77
2024/01/06 04:24:21;;;;;;;11.55;3.50;;;;;;;;;;5040360;28;20047;-77
2024/01/06 04:26:47;;;;;;;9.38;3.42;;;;;;;;;;5043190;28;20072;-77
2024/01/06 04:29:12;;;;;;;9.73;4.53;;;;;;;;;;5052026;28;20100;-77
2024/01/06 04:31:38;;;;;;;7.75;2.88;;;;;;;;;;5043148;28;20130;-77
2024/01/06 04:34:03;;;;;;;7.18;2.30;;;;;;;;;;5044859;28;20406;-77
2024/01/06 04:36:29;;;;;;;6.03;2.67;;;;;;;;;;5037600;28;20044;-77
2024/01/06 04:38:54;;;;;;;3.88;2.00;;;;;;;;;;5042165;28;20033;-77
2024/01/06 04:41:20;;;;;;;3.30;1.35;;;;;;;;;;5047102;28;20131;-77
2024/01/06 04:43:46;;;;;;;6.93;2.60;;;;;;;;;;5046259;28;20084;-77
2024/01/06 04:46:11;;;;;;;6.35;2.17;;;;;;;;;;5046850;28;20025;-77
2024/01/06 04:48:36;;;;;;;7.10;2.92;;;;;;;;;;5042148;28;20060;-77
2024/01/06 04:51:03;;;;;;;9.40;2.40;;;;;;;;;;5044130;28;20116;-77
2024/01/06 04:53:28;;;;;;;7.63;2.20;;;;;;;;;;5042375;28;20043;-77
2024/01/06 04:55:54;;;;;;;7.85;2.75;;;;;;;;;;5044519;28;20033;-78
2024/01/06 04:58:19;;;;;;;4.15;2.03;;;;;;;;;;5037871;28;20025;-77
2024/01/06 05:00:45;;;;;;;8.10;2.90;;;;;;;;;;5039478;28;20041;-77
2024/01/06 05:03:10;;;;;;;6.90;2.47;;;;;;;;;;5058832;28;20133;-77
2024/01/06 05:05:35;;;;;;;9.95;3.42;;;;;;;;;;5042311;28;20033;-77
2024/01/06 05:08:01;;;;;;;7.05;2.60;;;;;;;;;;5044391;28;20025;-77
2024/01/06 05:10:27;;;;;;;8.05;2.50;;;;;;;;;;5041696;28;20047;-77
2024/01/06 05:12:52;;;;;;;5.47;2.20;;;;;;;;;;5042746;28;20037;-77
2024/01/06 05:15:17;;;;;;;10.45;2.90;;;;;;;;;;5043568;28;20043;-77
2024/01/06 05:17:43;;;;;;;8.43;3.30;;;;;;;;;;5028936;28;20091;-77
2024/01/06 05:20:08;;;;;;;7.57;2.28;;;;;;;;;;5031726;28;20045;-77
2024/01/06 05:22:34;;;;;;;12.02;3.65;;;;;;;;;;5035515;28;20032;-78
2024/01/06 05:24:59;;;;;;;6.43;2.72;;;;;;;;;;5045340;28;20037;-77
2024/01/06 05:27:24;;;;;;;4.63;2.03;;;;;;;;;;5047698;28;20041;-77
2024/01/06 05:29:51;;;;;;;7.70;2.78;;;;;;;;;;5048160;28;20025;-77
2024/01/06 05:32:17;;;;;;;4.70;1.88;;;;;;;;;;5041762;28;20033;-77
2024/01/06 05:34:44;;;;;;;4.45;2.05;;;;;;;;;;5066282;28;20049;-77
2024/01/06 05:37:09;;;;;;;8.90;2.33;;;;;;;;;;5062553;28;20043;-77
2024/01/06 05:39:38;;;;;;;10.68;2.38;;;;;;;;;;5046796;28;20045;-77
2024/01/06 05:42:03;;;;;;;3.60;1.58;;;;;;;;;;5062453;28;20131;-77
2024/01/06 05:44:28;;;;;;;4.20;1.48;;;;;;;;;;5046457;28;20049;-77
2024/01/06 05:46:54;;;;;;;6.07;1.60;;;;;;;;;;5048051;28;20052;-77
2024/01/06 05:49:20;;;;;;;6.18;2.22;;;;;;;;;;5048376;28;20036;-77
2024/01/06 05:51:45;;;;;;;3.80;1.73;;;;;;;;;;5047657;28;20036;-78
2024/01/06 05:54:11;;;;;;;7.35;2.92;;;;;;;;;;5048326;28;20122;-77
2024/01/06 05:56:36;;;;;;;3.30;2.03;;;;;;;;;;5049043;28;20040;-77
2024/01/06 05:59:02;;;;;;;5.57;2.10;;;;;;;;;;5048204;28;20033;-77
2024/01/06 06:01:28;;;;;;;7.65;1.98;;;;;;;;;;5039371;28;20568;-77
2024/01/06 06:03:53;;;;;;;7.00;2.13;;;;;;;;;;5055314;28;20064;-77
2024/01/06 06:06:19;;;;;;;5.07;1.90;;;;;;;;;;5050935;28;20029;-77
2024/01/06 06:08:44;;;;;;;8.60;2.60;;;;;;;;;;5047920;28;20039;-77
2024/01/06 06:11:13;;;;;;;8.07;2.67;;;;;;;;;;5044443;28;20064;-77
2024/01/06 06:13:41;;;;;;;4.53;1.70;;;;;;;;;;5046035;28;20490;-77
2024/01/06 06:16:09;;;;;;;8.27;1.90;;;;;;;;;;5062953;28;20539;-78
2024/01/06 06:18:35;;;;;;;5.20;2.22;;;;;;;;;;5047425;28;20051;-79
2024/01/06 06:21:03;;;;;;;6.78;2.08;;;;;;;;;;5044573;28;20803;-78
2024/01/06 06:23:28;;;;;;;4.53;2.28;;;;;;;;;;5038400;28;20092;-77
2024/01/06 06:25:54;;;;;;;5.80;1.88;;;;;;;;;;5034943;28;20960;-77
2024/01/06 06:28:19;;;;;;;4.10;2.03;;;;;;;;;;5037697;28;20021;-77
2024/01/06 06:30:45;;;;;;;5.57;2.50;;;;;;;;;;5062612;28;20044;-77
2024/01/06 06:33:10;;;;;;;5.22;2.45;;;;;;;;;;5046212;28;20037;-77
2024/01/06 06:35:35;;;;;;;4.85;2.13;;;;;;;;;;5028744;28;20459;-77
2024/01/06 06:38:01;;;;;;;6.72;1.90;;;;;;;;;;5037285;28;20059;-77
2024/01/06 06:40:26;;;;;;;9.32;2.67;;;;;;;;;;5048443;28;20036;-77
2024/01/06 06:42:51;;;;;;;5.88;2.40;;;;;;;;;;5045819;28;20033;-77
2024/01/06 06:45:20;;;;;;;6.53;1.95;;;;;;;;;;5045736;28;20149;-77
2024/01/06 06:47:45;;;;;;;6.95;2.08;;;;;;;;;;5046522;28;20537;-77
2024/01/06 06:50:11;;;;;;;5.90;2.67;;;;;;;;;;5041472;28;20037;-78
2024/01/06 06:52:36;;;;;;;8.40;2.58;;;;;;;;;;5040675;28;20029;-78
2024/01/06 06:55:01;;;;;;;8.60;3.28;;;;;;;;;;5027435;28;20762;-78
2024/01/06 06:57:27;;;;;;;6.63;2.90;;;;;;;;;;5026859;28;20710;-78
2024/01/06 06:59:52;;;;;;;9.73;2.42;;;;;;;;;;5030955;28;20034;-78
2024/01/06 07:02:17;;;;;;;9.13;2.92;;;;;;;;;;5030466;28;20046;-78
2024/01/06 07:04:43;;;;;;;8.95;3.38;;;;;;;;;;5049135;28;20052;-78
2024/01/06 07:07:09;;;;;;;10.15;2.88;;;;;;;;;;5033467;28;20602;-78
2024/01/06 07:09:34;;;;;;;12.98;3.28;;;;;;;;;;5047459;28;20108;-78
2024/01/06 07:11:59;;;;;;;11.80;2.75;;;;;;;;;;5039250;28;20060;-78
2024/01/06 07:14:25;;;;;;;9.00;3.50;;;;;;;;;;5045589;28;20029;-78
2024/01/06 07:16:50;;;;;;;11.57;3.45;;;;;;;;;;5046955;28;20120;-78
2024/01/06 07:19:16;;;;;;;9.65;2.28;;;;;;;;;;5050541;28;20029;-78
2024/01/06 07:21:41;;;;;;;8.88;2.90;;;;;;;;;;5049460;28;20043;-78
2024/01/06 07:24:07;;;;;;;16.20;4.57;;;;;;;;;;5054084;28;20040;-78
2024/01/06 07:26:32;;;;;;;15.93;5.60;;;;;;;;;;5046081;28;20058;-78
2024/01/06 07:28:57;;;;;;;17.42;4.90;;;;;;;;;;5045612;28;20044;-78
2024/01/06 07:31:23;;;;;;;21.85;5.32;;;;;;;;;;5036926;28;20403;-78
2024/01/06 07:33:48;;;;;;;27.42;5.55;;;;;;;;;;5032598;28;20127;-78
2024/01/06 07:36:13;;;;;;;14.23;4.25;;;;;;;;;;5034360;28;20072;-79
2024/01/06 07:38:39;;;;;;;22.35;5.47;;;;;;;;;;5030745;28;20073;-78
2024/01/06 07:41:04;;;;;;;17.70;4.32;;;;;;;;;;5024280;28;20478;-78
2024/01/06 07:43:30;;;;;;;18.77;4.70;;;;;;;;;;5042249;28;20116;-78
2024/01/06 07:45:56;;;;;;;22.52;4.47;;;;;;;;;;5026196;28;20088;-78
2024/01/06 07:48:22;;;;;;;14.43;4.68;;;;;;;;;;5044761;28;20506;-78
2024/01/06 07:50:47;;;;;;;17.80;4.47;;;;;;;;;;5047087;28;20049;-78
2024/01/06 07:53:13;;;;;;;21.27;4.88;;;;;;;;;;5046835;28;20120;-78
2024/01/06 07:55:39;;;;;;;18.23;4.55;;;;;;;;;;5039724;28;20505;-78
2024/01/06 07:58:05;;;;;;;20.25;4.53;;;;;;;;;;5044055;28;20025;-78
2024/01/06 08:00:30;;;;;;;18.48;5.28;;;;;;;;;;5045634;28;20480;-78
2024/01/06 08:02:56;;;;;;;22.27;5.10;;;;;;;;;;5060822;28;20060;-79
2024/01/06 08:05:21;;;;;;;16.80;4.07;;;;;;;;;;5044326;28;20132;-78
2024/01/06 08:07:46;;;;;;;17.17;4.43;;;;;;;;;;5060652;28;20040;-78
2024/01/06 08:10:12;;;;;;;17.70;4.80;;;;;;;;;;5056816;28;20033;-78
2024/01/06 08:12:37;;;;;;;17.10;4.85;;;;;;;;;;5033941;28;20048;-74
2024/01/06 08:15:04;;;;;;;28.90;5.03;;;;;;;;;;5045876;28;20075;-75
2024/01/06 08:17:30;;;;;;;25.80;6.68;;;;;;;;;;5045683;28;20040;-74
2024/01/06 08:19:55;;;;;;;10.73;3.28;;;;;;;;;;5043866;28;20036;-74
2024/01/06 08:22:20;;;;;;;17.50;5.22;;;;;;;;;;5044666;28;20040;-75
2024/01/06 08:24:47;;;;;;;17.30;5.43;;;;;;;;;;5044305;28;20041;-75
2024/01/06 08:27:12;;;;;;;17.90;5.85;;;;;;;;;;5037386;28;20045;-75
2024/01/06 08:29:38;;;;;;;16.45;5.35;;;;;;;;;;5031180;28;20543;-75
2024/01/06 08:32:04;;;;;;;14.88;5.00;;;;;;;;;;5031040;28;20033;-75
2024/01/06 08:34:29;;;;;;;20.55;5.90;;;;;;;;;;5042306;28;20037;-75
2024/01/06 08:36:55;;;;;;;12.90;4.30;;;;;;;;;;5044217;28;20056;-75
2024/01/06 08:39:22;;;;;;;18.98;5.65;;;;;;;;;;5037061;28;20037;-75
2024/01/06 08:41:47;;;;;;;14.65;5.28;;;;;;;;;;5056514;28;20033;-74
2024/01/06 08:44:13;;;;;;;17.42;5.68;;;;;;;;;;5044743;28;20043;-74
2024/01/06 08:46:39;;;;;;;22.85;6.30;;;;;;;;;;5045522;28;20083;-75
2024/01/06 08:49:05;;;;;;;25.13;6.63;;;;;;;;;;5046161;28;20024;-75
2024/01/06 08:51:30;;;;;;;26.95;6.10;;;;;;;;;;5045239;28;20035;-75
2024/01/06 08:53:56;;;;;;;30.83;6.97;;;;;;;;;;5047669;28;20033;-76
2024/01/06 08:56:21;;;;;;;22.95;7.28;;;;;;;;;;5035682;28;20043;-75
2024/01/06 08:58:47;;;;;;;28.95;7.60;;;;;;;;;;5034438;28;20033;-74
2024/01/06 09:01:13;;;;;;;11.82;4.47;;;;;;;;;;5044531;28;20091;-75
2024/01/06 09:03:39;;;;;;;27.42;7.57;;;;;;;;;;5043593;28;20076;-74
2024/01/06 09:06:05;;;;;;;30.75;7.05;;;;;;;;;;5043598;28;20056;-74
2024/01/06 09:08:30;;;;;;;33.63;7.25;;;;;;;;;;5044698;28;20040;-75
2024/01/06 09:10:57;;;;;;;36.58;8.73;;;;;;;;;;5045350;28;20029;-75
2024/01/06 09:13:23;;;;;;;23.52;6.43;;;;;;;;;;5044918;28;20032;-75
2024/01/06 09:15:48;;;;;;;34.47;7.72;;;;;;;;;;5037273;28;20140;-75
2024/01/06 09:18:13;;;;;;;30.00;7.13;;;;;;;;;;5038073;28;20090;-74
2024/01/06 09:20:39;;;;;;;28.98;7.85;;;;;;;;;;5044647;28;20044;-74
2024/01/06 09:23:04;;;;;;;25.77;7.68;;;;;;;;;;5025376;28;20044;-76
2024/01/06 09:25:30;;;;;;;27.67;6.65;;;;;;;;;;5025336;28;20120;-75
2024/01/06 09:27:55;;;;;;;27.85;6.60;;;;;;;;;;5034229;28;20037;-74
2024/01/06 09:30:21;;;;;;;29.02;6.80;;;;;;;;;;5028951;28;20030;-75
2024/01/06 09:32:46;;;;;;;25.90;7.07;;;;;;;;;;5036647;28;20068;-75
2024/01/06 09:35:11;;;;;;;28.75;7.68;;;;;;;;;;5040307;28;20045;-76
2024/01/06 09:37:37;;;;;;;30.88;7.32;;;;;;;;;;5039244;28;20040;-77
2024/01/06 09:40:03;;;;;;;41.60;8.68;;;;;;;;;;5044558;28;20041;-77
2024/01/06 09:42:28;;;;;;;39.10;8.43;;;;;;;;;;5044236;28;20052;-76
2024/01/06 09:44:54;;;;;;;25.13;6.32;;;;;;;;;;5044174;28;20041;-76
2024/01/06 09:47:22;;;;;;;30.30;8.00;;;;;;;;;;5042693;28;20032;-76
2024/01/06 09:49:51;;;;;;;36.47;8.27;;;;;;;;;;5044612;28;20112;-76
2024/01/06 09:52:21;;;;;;;37.17;10.05;;;;;;;;;;5043391;28;20040;-76
2024/01/06 09:54:51;;;;;;;33.95;7.47;;;;;;;;;;5043623;28;20052;-76
2024/01/06 09:57:17;;;;;;;35.90;7.78;;;;;;;;;;5047044;28;20132;-76
2024/01/06 09:59:44;;;;;;;34.50;7.53;;;;;;;;;;5052510;28;20060;-76
2024/01/06 10:02:14;;;;;;;34.03;7.80;;;;;;;;;;5053600;28;20037;-76
2024/01/06 10:04:40;;;;;;;30.17;8.05;;;;;;;;;;5042053;28;20057;-76
2024/01/06 10:07:05;;;;;;;33.33;6.95;;;;;;;;;;5043322;28;20047;-76
2024/01/06 10:09:31;;;;;;;30.00;6.88;;;;;;;;;;5046318;28;20039;-76
2024/01/06 10:11:57;;;;;;;32.28;7.05;;;;;;;;;;5047305;28;20863;-76
2024/01/06 10:14:23;;;;;;;37.38;7.43;;;;;;;;;;5044538;28;20091;-76
2024/01/06 10:16:50;;;;;;;25.83;6.80;;;;;;;;;;5045331;28;20037;-76
2024/01/06 10:19:16;;;;;;;36.72;8.43;;;;;;;;;;5045477;28;20504;-76
2024/01/06 10:21:41;;;;;;;28.05;7.13;;;;;;;;;;5044965;28;20513;-76
2024/01/06 10:24:10;;;;;;;33.10;7.88;;;;;;;;;;5046295;28;20048;-76
2024/01/06 10:26:35;;;;;;;26.45;6.85;;;;;;;;;;5046324;28;20051;-76
2024/01/06 10:29:01;;;;;;;26.85;7.38;;;;;;;;;;5046330;28;20040;-76
2024/01/06 10:31:26;;;;;;;30.20;7.50;;;;;;;;;;5047474;28;20052;-76
2024/01/06 10:33:52;;;;;;;27.05;6.38;;;;;;;;;;5043236;28;20033;-77
2024/01/06 10:36:17;;;;;;;23.77;5.95;;;;;;;;;;5034661;28;20533;-75
2024/01/06 10:38:44;;;;;;;32.38;7.30;;;;;;;;;;5041754;28;20514;-75
2024/01/06 10:41:11;;;;;;;21.67;6.57;;;;;;;;;;5028150;28;20049;-76
2024/01/06 10:43:40;;;;;;;28.98;7.30;;;;;;;;;;5042573;28;20158;-76
2024/01/06 10:46:09;;;;;;;21.25;6.68;;;;;;;;;;5041438;28;20120;-78
2024/01/06 10:48:38;;;;;;;19.77;5.93;;;;;;;;;;5035508;28;20713;-78
2024/01/06 10:51:07;;;;;;;19.77;6.68;;;;;;;;;;5030414;28;20045;-77
2024/01/06 10:53:33;;;;;;;20.30;6.32;;;;;;;;;;5053802;28;20120;-77
2024/01/06 10:55:59;;;;;;;21.20;6.43;;;;;;;;;;5047004;28;20115;-77
2024/01/06 10:58:25;;;;;;;16.60;5.80;;;;;;;;;;5046975;28;20174;-77
2024/01/06 11:00:51;;;;;;;10.23;4.25;;;;;;;;;;5052460;28;20044;-77
2024/01/06 11:03:17;;;;;;;15.52;5.22;;;;;;;;;;5062178;28;20037;-77
2024/01/06 11:05:43;;;;;;;11.70;4.25;;;;;;;;;;5057792;28;20302;-77
2024/01/06 11:08:10;;;;;;;14.20;5.47;;;;;;;;;;5046664;28;20387;-77
2024/01/06 11:10:37;;;;;;;16.02;5.72;;;;;;;;;;5046047;28;20025;-76
2024/01/06 11:13:12;;;;;;;13.38;5.32;;;;;;;;;;5044280;28;20461;-77
2024/01/06 11:15:46;;;;;;;14.70;6.55;;;;;;;;;;5046095;28;20772;-77
2024/01/06 11:18:42;;;;;;;17.77;6.15;;;;;;;;;;5060072;28;20029;-77
2024/01/06 11:21:13;;;;;;;12.05;5.10;;;;;;;;;;5037786;28;20057;-77
2024/01/06 11:23:39;;;;;;;20.40;6.57;;;;;;;;;;5046719;28;20689;-78
2024/01/06 11:26:06;;;;;;;18.20;7.38;;;;;;;;;;5036936;28;20037;-77
2024/01/06 11:28:43;;;;;;;17.77;6.38;;;;;;;;;;5027836;28;20037;-77
2024/01/06 11:31:09;;;;;;;16.60;6.20;;;;;;;;;;5025453;28;20029;-77
2024/01/06 11:33:41;;;;;;;21.58;7.30;;;;;;;;;;5023815;28;20037;-76
2024/01/06 11:36:09;;;;;;;19.48;6.57;;;;;;;;;;5023900;28;20034;-77
2024/01/06 11:38:38;;;;;;;17.85;6.68;;;;;;;;;;5040144;28;20033;-77
2024/01/06 11:41:05;;;;;;;20.08;6.50;;;;;;;;;;5043417;28;20083;-77
2024/01/06 11:43:35;;;;;;;22.42;7.40;;;;;;;;;;5043664;28;20072;-77
2024/01/06 11:46:02;;;;;;;19.77;6.47;;;;;;;;;;5043802;28;20120;-76
2024/01/06 11:48:31;;;;;;;21.15;7.10;;;;;;;;;;5044090;28;20080;-77
2024/01/06 11:50:58;;;;;;;26.67;7.88;;;;;;;;;;5044344;28;20091;-77
2024/01/06 11:53:29;;;;;;;20.23;6.50;;;;;;;;;;5045599;28;20033;-77
2024/01/06 11:55:54;;;;;;;18.85;6.47;;;;;;;;;;5042463;28;20024;-77
2024/01/06 11:58:20;;;;;;;18.77;5.60;;;;;;;;;;5060718;28;20037;-77
2024/01/06 12:00:55;;;;;;;21.88;6.70;;;;;;;;;;5043273;28;20037;-77
2024/01/06 12:03:20;;;;;;;19.50;7.60;;;;;;;;;;5033682;28;20037;-75
2024/01/06 12:05:46;;;;;;;14.90;5.15;;;;;;;;;;5029310;28;20045;-76
2024/01/06 12:08:11;;;;;;;21.20;7.85;;;;;;;;;;5025280;28;20517;-77
2024/01/06 12:10:37;;;;;;;17.30;6.88;;;;;;;;;;5025237;28;20047;-77
2024/01/06 12:13:03;;;;;;;31.70;11.30;;;;;;;;;;5022925;28;20116;-77
2024/01/06 12:15:31;;;;;;;21.50;7.55;;;;;;;;;;5026077;28;20540;-77
2024/01/06 12:17:57;;;;;;;19.98;6.55;;;;;;;;;;5044478;28;20035;-76
2024/01/06 12:20:24;;;;;;;18.10;6.95;;;;;;;;;;5045366;28;20037;-77
2024/01/06 12:22:51;;;;;;;32.03;10.27;;;;;;;;;;5043365;28;20032;-76
2024/01/06 12:25:17;;;;;;;27.92;8.07;;;;;;;;;;5026480;28;20025;-76
2024/01/06 12:27:43;;;;;;;21.58;7.43;;;;;;;;;;5021365;28;20045;-77
2024/01/06 12:30:16;;;;;;;24.48;8.32;;;;;;;;;;5038708;28;20030;-76
2024/01/06 12:32:43;;;;;;;27.35;8.82;;;;;;;;;;5019838;28;20037;-77
2024/01/06 12:35:10;;;;;;;19.58;7.10;;;;;;;;;;5019480;28;20040;-76
2024/01/06 12:37:35;;;;;;;32.92;9.80;;;;;;;;;;5035149;28;20029;-76
2024/01/06 12:40:01;;;;;;;25.30;8.50;;;;;;;;;;5043527;28;20477;-76
2024/01/06 12:42:27;;;;;;;31.27;9.98;;;;;;;;;;5043735;28;20037;-76
2024/01/06 12:44:52;;;;;;;22.67;8.52;;;;;;;;;;5042020;28;20514;-76
2024/01/06 12:47:18;;;;;;;29.08;8.95;;;;;;;;;;5043808;28;20025;-76
2024/01/06 12:49:43;;;;;;;28.88;7.45;;;;;;;;;;5043640;28;20031;-76
2024/01/06 12:52:09;;;;;;;28.27;8.27;;;;;;;;;;5042366;28;20025;-76
2024/01/06 12:54:34;;;;;;;28.88;9.65;;;;;;;;;;5044114;28;20025;-76
2024/01/06 12:57:00;;;;;;;23.33;8.73;;;;;;;;;;5043465;28;20053;-76
2024/01/06 12:59:25;;;;;;;28.95;8.90;;;;;;;;;;5041987;28;20443;-76
2024/01/06 13:01:50;;;;;;;31.13;9.30;;;;;;;;;;5043507;28;20029;-76
2024/01/06 13:04:16;;;;;;;29.17;9.13;;;;;;;;;;5042517;28;20047;-76
2024/01/06 13:06:42;;;;;;;24.10;8.00;;;;;;;;;;5043446;28;20064;-76
2024/01/06 13:09:08;;;;;;;25.33;8.20;;;;;;;;;;5043167;28;20064;-77
2024/01/06 13:11:35;;;;;;;31.25;9.10;;;;;;;;;;5043638;28;20036;-77
2024/01/06 13:14:01;;;;;;;25.20;8.68;;;;;;;;;;5035433;28;20041;-76
2024/01/06 13:16:27;;;;;;;16.65;6.32;;;;;;;;;;5034200;28;20072;-76
2024/01/06 13:18:52;;;;;;;18.25;7.15;;;;;;;;;;5031496;28;21467;-77
2024/01/06 13:21:18;;;;;;;21.98;8.05;;;;;;;;;;5041615;28;20560;-77
2024/01/06 13:23:43;;;;;;;21.25;8.30;;;;;;;;;;5040707;28;20033;-76
2024/01/06 13:26:08;;;;;;;13.77;4.45;;;;;;;;;;5043219;28;20033;-77
2024/01/06 13:28:34;;;;;;;21.08;7.20;;;;;;;;;;5043723;28;20469;-77
2024/01/06 13:31:00;;;;;;;26.67;8.57;;;;;;;;;;5043530;28;20037;-76
2024/01/06 13:33:25;;;;;;;22.70;6.68;;;;;;;;;;5041986;28;20064;-77
2024/01/06 13:35:51;;;;;;;18.17;6.55;;;;;;;;;;5033486;28;20132;-76
2024/01/06 13:38:16;;;;;;;19.52;6.63;;;;;;;;;;5042541;28;20043;-77
2024/01/06 13:40:42;;;;;;;17.15;6.60;;;;;;;;;;5045096;28;20025;-76
2024/01/06 13:43:09;;;;;;;25.92;8.88;;;;;;;;;;5059097;28;20021;-76
2024/01/06 13:45:35;;;;;;;19.45;7.50;;;;;;;;;;5048282;28;20032;-76
2024/01/06 13:48:02;;;;;;;17.40;5.72;;;;;;;;;;5046575;28;20029;-77
2024/01/06 13:50:27;;;;;;;21.50;6.93;;;;;;;;;;5060959;28;20507;-77
2024/01/06 13:52:54;;;;;;;19.85;6.28;;;;;;;;;;5046618;28;20025;-77
2024/01/06 13:55:19;;;;;;;17.45;6.53;;;;;;;;;;5044115;28;20025;-76
2024/01/06 13:57:45;;;;;;;16.60;6.10;;;;;;;;;;5047209;28;20033;-75
2024/01/06 14:00:14;;;;;;;19.52;6.47;;;;;;;;;;5046767;28;20518;-76
2024/01/06 14:02:41;;;;;;;14.10;5.65;;;;;;;;;;5039435;28;20049;-76
2024/01/06 14:05:08;;;;;;;9.52;5.18;;;;;;;;;;5043491;28;20057;-76
2024/01/06 14:07:34;;;;;;;13.85;5.47;;;;;;;;;;5043994;28;20029;-76
2024/01/06 14:09:59;;;;;;;17.90;8.25;;;;;;;;;;5043840;28;20083;-76
2024/01/06 14:12:25;;;;;;;14.90;6.20;;;;;;;;;;5045234;28;20041;-76
2024/01/06 14:14:50;;;;;;;16.52;5.38;;;;;;;;;;5045496;28;20086;-77
2024/01/06 14:17:16;;;;;;;17.15;6.65;;;;;;;;;;5044684;28;20545;-77
2024/01/06 14:19:42;;;;;;;13.15;5.45;;;;;;;;;;5043802;28;20037;-76
2024/01/06 14:22:07;;;;;;;12.32;5.28;;;;;;;;;;5045090;28;20029;-77
2024/01/06 14:24:33;;;;;;;11.75;5.22;;;;;;;;;;5046016;28;20209;-77
2024/01/06 14:26:58;;;;;;;12.52;5.70;;;;;;;;;;5044107;28;20419;-77